sensor_id;sensor_type;location;lat;lon;timestamp;pressure;altitude;pressure_sealevel;temperature;humidity
74242;BME280;62599;49.146;10.426;2023-05-20T00:00:26;95934.16;;;11.05;100.00
74242;BME280;62599;49.146;10.426;2023-05-20T00:02:51;95932.91;;;11.02;99.95
74242;BME280;62599;49.146;10.426;2023-05-20T00:05:16;95926.72;;;11.02;100.00
74242;BME280;62599;49.146;10.426;2023-05-20T00:07:42;95928.63;;;11.01;100.00
74242;BME280;62599;49.146;10.426;2023-05-20T00:10:07;95933.22;;;11.01;100.00
74242;BME280;62599;49.146;10.426;2023-05-20T00:12:33;95927.38;;;10.99;99.87
74242;BME280;62599;49.146;10.426;2023-05-20T00:15:01;95931.63;;;11.00;100.00
74242;BME280;62599;49.146;10.426;2023-05-20T00:17:27;95931.63;;;11.00;100.00
74242;BME280;62599;49.146;10.426;2023-05-20T00:19:53;95930.06;;;10.99;100.00
74242;BME280;62599;49.146;10.426;2023-05-20T00:22:19;95930.53;;;11.01;100.00
74242;BME280;62599;49.146;10.426;2023-05-20T00:24:44;95926.38;;;11.03;100.00
74242;BME280;62599;49.146;10.426;2023-05-20T00:27:13;95934.16;;;11.05;100.00
74242;BME280;62599;49.146;10.426;2023-05-20T00:29:38;95926.06;;;11.05;100.00
74242;BME280;62599;49.146;10.426;2023-05-20T00:32:04;95915.59;;;11.03;100.00
74242;BME280;62599;49.146;10.426;2023-05-20T00:34:29;95913.59;;;11.00;100.00
74242;BME280;62599;49.146;10.426;2023-05-20T00:36:55;95918.03;;;10.96;100.00
74242;BME280;62599;49.146;10.426;2023-05-20T00:39:20;95907.78;;;10.90;100.00
74242;BME280;62599;49.146;10.426;2023-05-20T00:41:45;95915.25;;;10.84;100.00
74242;BME280;62599;49.146;10.426;2023-05-20T00:44:11;95909.59;;;10.77;100.00
74242;BME280;62599;49.146;10.426;2023-05-20T00:46:36;95911.72;;;10.71;100.00
74242;BME280;62599;49.146;10.426;2023-05-20T00:49:02;95914.56;;;10.66;100.00
74242;BME280;62599;49.146;10.426;2023-05-20T00:51:28;95909.69;;;10.59;100.00
74242;BME280;62599;49.146;10.426;2023-05-20T00:53:54;95910.19;;;10.53;100.00
74242;BME280;62599;49.146;10.426;2023-05-20T00:56:21;95910.06;;;10.49;100.00
74242;BME280;62599;49.146;10.426;2023-05-20T00:58:47;95907.56;;;10.44;100.00
74242;BME280;62599;49.146;10.426;2023-05-20T01:01:15;95911.25;;;10.40;100.00
74242;BME280;62599;49.146;10.426;2023-05-20T01:03:40;95904.59;;;10.37;100.00
74242;BME280;62599;49.146;10.426;2023-05-20T01:06:06;95912.53;;;10.33;100.00
74242;BME280;62599;49.146;10.426;2023-05-20T01:08:31;95900.69;;;10.26;100.00
74242;BME280;62599;49.146;10.426;2023-05-20T01:11:03;95908.91;;;10.21;100.00
74242;BME280;62599;49.146;10.426;2023-05-20T01:13:34;95903.09;;;10.10;100.00
74242;BME280;62599;49.146;10.426;2023-05-20T01:16:02;95908.66;;;10.05;100.00
74242;BME280;62599;49.146;10.426;2023-05-20T01:18:29;95910.41;;;10.01;100.00
74242;BME280;62599;49.146;10.426;2023-05-20T01:20:56;95906.78;;;9.97;100.00
74242;BME280;62599;49.146;10.426;2023-05-20T01:23:37;95900.47;;;9.93;100.00
74242;BME280;62599;49.146;10.426;2023-05-20T01:26:04;95897.16;;;9.87;100.00
74242;BME280;62599;49.146;10.426;2023-05-20T01:28:31;95893.66;;;9.86;100.00
74242;BME280;62599;49.146;10.426;2023-05-20T01:30:59;95893.38;;;9.88;100.00
74242;BME280;62599;49.146;10.426;2023-05-20T01:33:27;95886.88;;;9.89;100.00
74242;BME280;62599;49.146;10.426;2023-05-20T01:35:54;95887.31;;;9.91;100.00
74242;BME280;62599;49.146;10.426;2023-05-20T01:38:20;95884.78;;;9.95;100.00
74242;BME280;62599;49.146;10.426;2023-05-20T01:40:48;95880.84;;;9.92;100.00
74242;BME280;62599;49.146;10.426;2023-05-20T01:43:16;95873.06;;;9.91;100.00
74242;BME280;62599;49.146;10.426;2023-05-20T01:45:42;95874.97;;;9.90;100.00
74242;BME280;62599;49.146;10.426;2023-05-20T01:48:09;95869.94;;;9.88;100.00
74242;BME280;62599;49.146;10.426;2023-05-20T01:50:36;95872.16;;;9.86;100.00
74242;BME280;62599;49.146;10.426;2023-05-20T01:53:01;95863.28;;;9.86;100.00
74242;BME280;62599;49.146;10.426;2023-05-20T01:55:27;95862.81;;;9.84;100.00
74242;BME280;62599;49.146;10.426;2023-05-20T01:57:52;95860.25;;;9.87;100.00
74242;BME280;62599;49.146;10.426;2023-05-20T02:00:17;95861.38;;;9.86;100.00
74242;BME280;62599;49.146;10.426;2023-05-20T02:02:43;95861.38;;;9.86;100.00
74242;BME280;62599;49.146;10.426;2023-05-20T02:05:09;95865.19;;;9.85;100.00
74242;BME280;62599;49.146;10.426;2023-05-20T02:07:34;95862.16;;;9.87;100.00
74242;BME280;62599;49.146;10.426;2023-05-20T02:10:00;95863.25;;;9.95;100.00
74242;BME280;62599;49.146;10.426;2023-05-20T02:12:25;95863.72;;;9.97;100.00
74242;BME280;62599;49.146;10.426;2023-05-20T02:14:50;95868.78;;;9.98;100.00
74242;BME280;62599;49.146;10.426;2023-05-20T02:17:16;95863.72;;;9.97;100.00
74242;BME280;62599;49.146;10.426;2023-05-20T02:19:45;95863.72;;;9.97;100.00
74242;BME280;62599;49.146;10.426;2023-05-20T02:22:11;95868.31;;;9.96;100.00
74242;BME280;62599;49.146;10.426;2023-05-20T02:24:36;95869.75;;;9.94;100.00
74242;BME280;62599;49.146;10.426;2023-05-20T02:27:02;95872.44;;;9.94;100.00
74242;BME280;62599;49.146;10.426;2023-05-20T02:29:29;95874.97;;;9.90;100.00
74242;BME280;62599;49.146;10.426;2023-05-20T02:31:54;95871.03;;;9.87;100.00
74242;BME280;62599;49.146;10.426;2023-05-20T02:34:20;95875.47;;;9.92;100.00
74242;BME280;62599;49.146;10.426;2023-05-20T02:36:46;95880.06;;;9.92;100.00
74242;BME280;62599;49.146;10.426;2023-05-20T02:39:11;95874.97;;;9.90;100.00
74242;BME280;62599;49.146;10.426;2023-05-20T02:41:37;95871.66;;;9.93;100.00
74242;BME280;62599;49.146;10.426;2023-05-20T02:44:02;95877.97;;;9.97;100.00
74242;BME280;62599;49.146;10.426;2023-05-20T02:46:28;95881.28;;;10.03;100.00
74242;BME280;62599;49.146;10.426;2023-05-20T02:48:53;95873.66;;;10.05;100.00
74242;BME280;62599;49.146;10.426;2023-05-20T02:51:18;95874.13;;;10.07;100.00
74242;BME280;62599;49.146;10.426;2023-05-20T02:53:45;95878.41;;;10.08;100.00
74242;BME280;62599;49.146;10.426;2023-05-20T02:56:10;95881.56;;;10.10;100.00
74242;BME280;62599;49.146;10.426;2023-05-20T02:58:37;95877.75;;;10.11;100.00
74242;BME280;62599;49.146;10.426;2023-05-20T03:01:02;95871.59;;;10.10;100.00
74242;BME280;62599;49.146;10.426;2023-05-20T03:03:28;95878.88;;;10.10;100.00
74242;BME280;62599;49.146;10.426;2023-05-20T03:05:53;95876.97;;;10.10;100.00
74242;BME280;62599;49.146;10.426;2023-05-20T03:08:22;95870.03;;;10.09;100.00
74242;BME280;62599;49.146;10.426;2023-05-20T03:10:48;95872.38;;;10.11;100.00
74242;BME280;62599;49.146;10.426;2023-05-20T03:13:13;95876.63;;;10.12;100.00
74242;BME280;62599;49.146;10.426;2023-05-20T03:15:42;95872.38;;;10.11;100.00
74242;BME280;62599;49.146;10.426;2023-05-20T03:18:11;95872.38;;;10.11;100.00
74242;BME280;62599;49.146;10.426;2023-05-20T03:20:39;95872.72;;;10.09;100.00
74242;BME280;62599;49.146;10.426;2023-05-20T03:23:06;95871.59;;;10.10;100.00
74242;BME280;62599;49.146;10.426;2023-05-20T03:25:31;95875.53;;;10.13;100.00
74242;BME280;62599;49.146;10.426;2023-05-20T03:27:57;95866.34;;;10.14;100.00
74242;BME280;62599;49.146;10.426;2023-05-20T03:30:23;95868.84;;;10.19;100.00
74242;BME280;62599;49.146;10.426;2023-05-20T03:32:49;95863.31;;;10.24;100.00
74242;BME280;62599;49.146;10.426;2023-05-20T03:35:14;95858.41;;;10.26;100.00
74242;BME280;62599;49.146;10.426;2023-05-20T03:37:43;95865.03;;;10.29;100.00
74242;BME280;62599;49.146;10.426;2023-05-20T03:40:09;95862.50;;;10.32;100.00
74242;BME280;62599;49.146;10.426;2023-05-20T03:42:35;95867.88;;;10.32;100.00
74242;BME280;62599;49.146;10.426;2023-05-20T03:45:01;95856.78;;;10.34;100.00
74242;BME280;62599;49.146;10.426;2023-05-20T03:47:27;95860.38;;;10.38;100.00
74242;BME280;62599;49.146;10.426;2023-05-20T03:49:53;95857.69;;;10.38;100.00
74242;BME280;62599;49.146;10.426;2023-05-20T03:52:18;95861.34;;;10.42;100.00
74242;BME280;62599;49.146;10.426;2023-05-20T03:54:43;95858.44;;;10.47;100.00
74242;BME280;62599;49.146;10.426;2023-05-20T03:57:09;95854.78;;;10.52;100.00
74242;BME280;62599;49.146;10.426;2023-05-20T03:59:35;95860.28;;;10.55;100.00
74242;BME280;62599;49.146;10.426;2023-05-20T04:02:00;95860.44;;;10.59;100.00
74242;BME280;62599;49.146;10.426;2023-05-20T04:04:26;95853.59;;;10.62;100.00
74242;BME280;62599;49.146;10.426;2023-05-20T04:06:51;95865.78;;;10.68;100.00
74242;BME280;62599;49.146;10.426;2023-05-20T04:09:18;95862.75;;;10.69;100.00
74242;BME280;62599;49.146;10.426;2023-05-20T04:11:43;95863.22;;;10.71;100.00
74242;BME280;62599;49.146;10.426;2023-05-20T04:14:09;95866.69;;;10.72;100.00
74242;BME280;62599;49.146;10.426;2023-05-20T04:16:35;95858.47;;;10.68;100.00
74242;BME280;62599;49.146;10.426;2023-05-20T04:19:02;95862.41;;;10.71;100.00
74242;BME280;62599;49.146;10.426;2023-05-20T04:21:27;95863.22;;;10.71;100.00
74242;BME280;62599;49.146;10.426;2023-05-20T04:23:53;95865.09;;;10.71;100.00
74242;BME280;62599;49.146;10.426;2023-05-20T04:26:18;95863.34;;;10.75;100.00
74242;BME280;62599;49.146;10.426;2023-05-20T04:28:45;95864.41;;;10.82;100.00
74242;BME280;62599;49.146;10.426;2023-05-20T04:31:13;95861.50;;;10.88;100.00
74242;BME280;62599;49.146;10.426;2023-05-20T04:33:38;95862.41;;;10.92;100.00
74242;BME280;62599;49.146;10.426;2023-05-20T04:36:06;95859.69;;;11.00;100.00
74242;BME280;62599;49.146;10.426;2023-05-20T04:38:31;95865.31;;;11.07;100.00
74242;BME280;62599;49.146;10.426;2023-05-20T04:41:00;95861.50;;;11.08;100.00
74242;BME280;62599;49.146;10.426;2023-05-20T04:43:26;95856.91;;;11.09;100.00
74242;BME280;62599;49.146;10.426;2023-05-20T04:45:56;95849.28;;;11.11;100.00
74242;BME280;62599;49.146;10.426;2023-05-20T04:48:22;95845.47;;;11.12;100.00
74242;BME280;62599;49.146;10.426;2023-05-20T04:50:48;95845.25;;;11.17;100.00
74242;BME280;62599;49.146;10.426;2023-05-20T04:53:14;95847.28;;;11.20;100.00
74242;BME280;62599;49.146;10.426;2023-05-20T04:55:40;95846.09;;;11.30;100.00
74242;BME280;62599;49.146;10.426;2023-05-20T04:58:07;95846.22;;;11.33;100.00
74242;BME280;62599;49.146;10.426;2023-05-20T05:00:43;95850.97;;;11.37;100.00
74242;BME280;62599;49.146;10.426;2023-05-20T05:03:09;95847.13;;;11.38;100.00
74242;BME280;62599;49.146;10.426;2023-05-20T05:05:37;95847.38;;;11.45;100.00
74242;BME280;62599;49.146;10.426;2023-05-20T05:08:04;95851.22;;;11.56;100.00
74242;BME280;62599;49.146;10.426;2023-05-20T05:10:31;95852.03;;;11.69;100.00
74242;BME280;62599;49.146;10.426;2023-05-20T05:12:57;95843.97;;;11.81;100.00
74242;BME280;62599;49.146;10.426;2023-05-20T05:15:22;95841.44;;;11.97;100.00
74242;BME280;62599;49.146;10.426;2023-05-20T05:17:48;95842.25;;;12.22;100.00
74242;BME280;62599;49.146;10.426;2023-05-20T05:20:13;95840.56;;;12.42;100.00
74242;BME280;62599;49.146;10.426;2023-05-20T05:22:39;95843.91;;;12.51;98.88
74242;BME280;62599;49.146;10.426;2023-05-20T05:25:09;95838.03;;;12.49;99.19
74242;BME280;62599;49.146;10.426;2023-05-20T05:27:35;95847.06;;;12.53;99.83
74242;BME280;62599;49.146;10.426;2023-05-20T05:30:02;95840.06;;;12.64;99.48
74242;BME280;62599;49.146;10.426;2023-05-20T05:32:27;95844.91;;;12.59;98.58
74242;BME280;62599;49.146;10.426;2023-05-20T05:34:53;95843.22;;;12.66;99.16
74242;BME280;62599;49.146;10.426;2023-05-20T05:37:18;95840.03;;;12.76;97.11
74242;BME280;62599;49.146;10.426;2023-05-20T05:39:44;95833.28;;;12.70;97.12
74242;BME280;62599;49.146;10.426;2023-05-20T05:42:09;95835.09;;;12.66;97.80
74242;BME280;62599;49.146;10.426;2023-05-20T05:44:35;95837.59;;;12.59;97.99
74242;BME280;62599;49.146;10.426;2023-05-20T05:47:00;95828.94;;;12.53;98.26
74242;BME280;62599;49.146;10.426;2023-05-20T05:49:26;95832.97;;;12.60;98.31
74242;BME280;62599;49.146;10.426;2023-05-20T05:51:51;95830.75;;;12.49;98.04
74242;BME280;62599;49.146;10.426;2023-05-20T05:54:17;95817.56;;;12.60;98.56
74242;BME280;62599;49.146;10.426;2023-05-20T05:56:44;95823.28;;;12.71;97.86
74242;BME280;62599;49.146;10.426;2023-05-20T05:59:09;95831.78;;;12.85;97.51
74242;BME280;62599;49.146;10.426;2023-05-20T06:01:35;95827.09;;;12.82;96.53
74242;BME280;62599;49.146;10.426;2023-05-20T06:04:01;95819.75;;;12.83;96.14
74242;BME280;62599;49.146;10.426;2023-05-20T06:06:26;95824.91;;;12.88;96.14
74242;BME280;62599;49.146;10.426;2023-05-20T06:08:52;95806.09;;;12.91;96.58
74242;BME280;62599;49.146;10.426;2023-05-20T06:11:17;95815.44;;;12.94;94.86
74242;BME280;62599;49.146;10.426;2023-05-20T06:13:43;95808.47;;;12.93;94.89
74242;BME280;62599;49.146;10.426;2023-05-20T06:16:08;95812.84;;;12.97;95.70
74242;BME280;62599;49.146;10.426;2023-05-20T06:18:36;95812.16;;;13.00;94.51
74242;BME280;62599;49.146;10.426;2023-05-20T06:21:02;95805.97;;;13.00;94.72
74242;BME280;62599;49.146;10.426;2023-05-20T06:23:27;95814.50;;;13.02;94.14
74242;BME280;62599;49.146;10.426;2023-05-20T06:25:57;95795.69;;;13.06;93.57
74242;BME280;62599;49.146;10.426;2023-05-20T06:28:23;95805.91;;;13.12;93.83
74242;BME280;62599;49.146;10.426;2023-05-20T06:30:48;95807.25;;;13.18;94.64
74242;BME280;62599;49.146;10.426;2023-05-20T06:33:13;95801.34;;;13.29;93.45
74242;BME280;62599;49.146;10.426;2023-05-20T06:35:39;95803.41;;;13.47;92.94
74242;BME280;62599;49.146;10.426;2023-05-20T06:38:05;95796.50;;;13.50;91.08
74242;BME280;62599;49.146;10.426;2023-05-20T06:40:30;95802.78;;;13.54;90.95
74242;BME280;62599;49.146;10.426;2023-05-20T06:42:56;95802.38;;;13.52;90.84
74242;BME280;62599;49.146;10.426;2023-05-20T06:45:21;95796.09;;;13.64;91.57
74242;BME280;62599;49.146;10.426;2023-05-20T06:47:46;95792.34;;;13.68;91.23
74242;BME280;62599;49.146;10.426;2023-05-20T06:50:13;95782.13;;;13.78;90.71
74242;BME280;62599;49.146;10.426;2023-05-20T06:52:39;95786.34;;;13.91;91.09
74242;BME280;62599;49.146;10.426;2023-05-20T06:55:05;95779.16;;;13.99;88.44
74242;BME280;62599;49.146;10.426;2023-05-20T06:57:30;95782.97;;;13.97;87.47
74242;BME280;62599;49.146;10.426;2023-05-20T06:59:55;95777.22;;;13.99;89.15
74242;BME280;62599;49.146;10.426;2023-05-20T07:02:21;95789.34;;;14.21;88.50
74242;BME280;62599;49.146;10.426;2023-05-20T07:04:47;95786.59;;;14.37;87.16
74242;BME280;62599;49.146;10.426;2023-05-20T07:07:13;95785.13;;;14.39;86.95
74242;BME280;62599;49.146;10.426;2023-05-20T07:09:38;95781.09;;;14.49;87.29
74242;BME280;62599;49.146;10.426;2023-05-20T07:12:04;95785.41;;;14.69;86.47
74242;BME280;62599;49.146;10.426;2023-05-20T07:14:30;95783.06;;;14.87;84.82
74242;BME280;62599;49.146;10.426;2023-05-20T07:16:58;95785.63;;;14.80;83.39
74242;BME280;62599;49.146;10.426;2023-05-20T07:19:24;95776.94;;;14.90;82.82
74242;BME280;62599;49.146;10.426;2023-05-20T07:21:49;95778.56;;;14.95;81.66
74242;BME280;62599;49.146;10.426;2023-05-20T07:24:17;95778.00;;;15.05;82.16
74242;BME280;62599;49.146;10.426;2023-05-20T07:26:42;95773.22;;;15.18;81.03
74242;BME280;62599;49.146;10.426;2023-05-20T07:29:08;95771.44;;;15.26;79.22
74242;BME280;62599;49.146;10.426;2023-05-20T07:31:34;95769.63;;;15.33;80.21
74242;BME280;62599;49.146;10.426;2023-05-20T07:34:00;95765.84;;;15.38;78.74
74242;BME280;62599;49.146;10.426;2023-05-20T07:36:29;95764.41;;;15.44;78.16
74242;BME280;62599;49.146;10.426;2023-05-20T07:38:57;95775.53;;;15.58;77.00
74242;BME280;62599;49.146;10.426;2023-05-20T07:41:22;95773.22;;;15.60;76.72
74242;BME280;62599;49.146;10.426;2023-05-20T07:43:48;95778.06;;;15.71;76.88
74242;BME280;62599;49.146;10.426;2023-05-20T07:46:14;95768.50;;;15.77;76.70
74242;BME280;62599;49.146;10.426;2023-05-20T07:48:41;95773.72;;;15.89;76.51
74242;BME280;62599;49.146;10.426;2023-05-20T07:51:10;95761.09;;;16.00;77.23
74242;BME280;62599;49.146;10.426;2023-05-20T07:53:41;95761.75;;;16.17;75.68
74242;BME280;62599;49.146;10.426;2023-05-20T07:56:06;95757.88;;;16.18;74.85
74242;BME280;62599;49.146;10.426;2023-05-20T07:58:32;95753.00;;;16.04;75.44
74242;BME280;62599;49.146;10.426;2023-05-20T08:00:57;95752.06;;;16.19;74.79
74242;BME280;62599;49.146;10.426;2023-05-20T08:03:23;95758.91;;;16.36;74.29
74242;BME280;62599;49.146;10.426;2023-05-20T08:05:48;95753.53;;;16.40;71.60
74242;BME280;62599;49.146;10.426;2023-05-20T08:08:13;95753.78;;;16.57;73.08
74242;BME280;62599;49.146;10.426;2023-05-20T08:10:43;95752.75;;;16.96;72.93
74242;BME280;62599;49.146;10.426;2023-05-20T08:13:14;95746.59;;;17.02;71.15
74242;BME280;62599;49.146;10.426;2023-05-20T08:15:40;95744.03;;;17.17;69.13
74242;BME280;62599;49.146;10.426;2023-05-20T08:18:05;95745.88;;;17.09;67.99
74242;BME280;62599;49.146;10.426;2023-05-20T08:20:30;95743.78;;;16.95;69.90
74242;BME280;62599;49.146;10.426;2023-05-20T08:26:03;95746.34;;;17.15;69.58
74242;BME280;62599;49.146;10.426;2023-05-20T08:28:29;95732.06;;;16.91;69.10
74242;BME280;62599;49.146;10.426;2023-05-20T08:31:00;95729.84;;;17.00;70.31
74242;BME280;62599;49.146;10.426;2023-05-20T08:33:26;95722.94;;;17.10;69.25
74242;BME280;62599;49.146;10.426;2023-05-20T08:35:51;95723.47;;;17.23;68.34
74242;BME280;62599;49.146;10.426;2023-05-20T08:38:17;95726.13;;;17.56;69.36
74242;BME280;62599;49.146;10.426;2023-05-20T08:40:43;95723.28;;;17.79;66.01
74242;BME280;62599;49.146;10.426;2023-05-20T08:43:08;95724.97;;;17.98;67.23
74242;BME280;62599;49.146;10.426;2023-05-20T08:45:36;95734.19;;;17.83;65.38
74242;BME280;62599;49.146;10.426;2023-05-20T08:48:02;95729.03;;;17.74;65.92
74242;BME280;62599;49.146;10.426;2023-05-20T08:50:29;95737.72;;;17.87;66.78
74242;BME280;62599;49.146;10.426;2023-05-20T08:52:55;95733.59;;;18.08;66.93
74242;BME280;62599;49.146;10.426;2023-05-20T08:57:53;95730.53;;;18.13;64.97
74242;BME280;62599;49.146;10.426;2023-05-20T09:00:20;95727.38;;;18.11;63.73
74242;BME280;62599;49.146;10.426;2023-05-20T09:02:53;95730.38;;;18.53;62.66
74242;BME280;62599;49.146;10.426;2023-05-20T09:05:19;95734.72;;;18.65;61.69
74242;BME280;62599;49.146;10.426;2023-05-20T09:07:45;95734.03;;;18.79;62.35
74242;BME280;62599;49.146;10.426;2023-05-20T09:10:11;95745.44;;;18.95;60.51
74242;BME280;62599;49.146;10.426;2023-05-20T09:12:37;95741.22;;;19.23;59.76
74242;BME280;62599;49.146;10.426;2023-05-20T09:15:03;95739.31;;;19.45;58.09
74242;BME280;62599;49.146;10.426;2023-05-20T09:17:34;95743.31;;;19.65;58.47
74242;BME280;62599;49.146;10.426;2023-05-20T09:20:08;95742.53;;;19.72;57.04
74242;BME280;62599;49.146;10.426;2023-05-20T09:22:35;95745.97;;;19.51;55.69
74242;BME280;62599;49.146;10.426;2023-05-20T09:25:01;95735.81;;;19.52;56.60
74242;BME280;62599;49.146;10.426;2023-05-20T09:27:26;95735.03;;;19.40;57.91
74242;BME280;62599;49.146;10.426;2023-05-20T09:29:51;95737.38;;;19.45;57.70
74242;BME280;62599;49.146;10.426;2023-05-20T09:32:20;95745.53;;;19.35;57.04
74242;BME280;62599;49.146;10.426;2023-05-20T09:34:48;95744.41;;;19.39;56.87
74242;BME280;62599;49.146;10.426;2023-05-20T09:37:16;95737.69;;;19.19;58.44
74242;BME280;62599;49.146;10.426;2023-05-20T09:40:03;95728.03;;;19.50;58.31
74242;BME280;62599;49.146;10.426;2023-05-20T09:42:41;95735.50;;;19.89;55.74
74242;BME280;62599;49.146;10.426;2023-05-20T09:45:08;95734.34;;;19.86;55.71
74242;BME280;62599;49.146;10.426;2023-05-20T09:47:37;95735.13;;;19.98;56.50
74242;BME280;62599;49.146;10.426;2023-05-20T09:50:06;95734.69;;;20.35;54.78
74242;BME280;62599;49.146;10.426;2023-05-20T09:52:34;95735.81;;;20.62;54.81
74242;BME280;62599;49.146;10.426;2023-05-20T09:55:02;95734.22;;;20.72;53.56
74242;BME280;62599;49.146;10.426;2023-05-20T09:57:32;95728.81;;;20.40;53.98
74242;BME280;62599;49.146;10.426;2023-05-20T09:59:58;95716.31;;;20.28;54.31
74242;BME280;62599;49.146;10.426;2023-05-20T10:02:23;95724.50;;;20.53;53.17
74242;BME280;62599;49.146;10.426;2023-05-20T10:04:50;95713.81;;;20.95;53.22
74242;BME280;62599;49.146;10.426;2023-05-20T10:07:39;95717.50;;;21.44;52.15
74242;BME280;62599;49.146;10.426;2023-05-20T10:10:36;95710.81;;;21.97;51.65
74242;BME280;62599;49.146;10.426;2023-05-20T10:21:17;95686.25;;;20.14;53.93
74242;BME280;62599;49.146;10.426;2023-05-20T10:23:43;95688.91;;;20.57;51.20
74242;BME280;62599;49.146;10.426;2023-05-20T10:26:09;95684.94;;;20.72;53.92
74242;BME280;62599;49.146;10.426;2023-05-20T10:28:35;95691.56;;;20.85;53.21
74242;BME280;62599;49.146;10.426;2023-05-20T10:31:02;95683.34;;;20.85;52.39
74242;BME280;62599;49.146;10.426;2023-05-20T10:33:28;95674.47;;;20.46;52.87
74242;BME280;62599;49.146;10.426;2023-05-20T10:35:58;95685.41;;;20.53;53.39
74242;BME280;62599;49.146;10.426;2023-05-20T10:38:24;95688.50;;;20.65;52.25
74242;BME280;62599;49.146;10.426;2023-05-20T10:40:51;95686.50;;;20.73;51.94
74242;BME280;62599;49.146;10.426;2023-05-20T10:43:26;95685.53;;;21.15;51.44
74242;BME280;62599;49.146;10.426;2023-05-20T10:45:55;95684.59;;;21.47;50.59
74242;BME280;62599;49.146;10.426;2023-05-20T10:48:26;95686.75;;;21.70;49.89
74242;BME280;62599;49.146;10.426;2023-05-20T10:50:56;95682.78;;;21.75;50.82
74242;BME280;62599;49.146;10.426;2023-05-20T10:53:23;95685.78;;;21.95;48.47
74242;BME280;62599;49.146;10.426;2023-05-20T10:55:53;95680.56;;;22.07;48.95
74242;BME280;62599;49.146;10.426;2023-05-20T10:58:22;95676.94;;;22.21;46.56
74242;BME280;62599;49.146;10.426;2023-05-20T11:00:52;95672.69;;;22.51;48.12
74242;BME280;62599;49.146;10.426;2023-05-20T11:03:20;95675.25;;;22.69;48.83
74242;BME280;62599;49.146;10.426;2023-05-20T11:05:46;95669.91;;;22.89;48.52
74242;BME280;62599;49.146;10.426;2023-05-20T11:08:13;95665.53;;;22.95;47.97
74242;BME280;62599;49.146;10.426;2023-05-20T11:10:38;95664.13;;;22.79;47.25
74242;BME280;62599;49.146;10.426;2023-05-20T11:13:05;95659.22;;;22.64;47.93
74242;BME280;62599;49.146;10.426;2023-05-20T11:15:33;95664.50;;;22.81;47.57
74242;BME280;62599;49.146;10.426;2023-05-20T11:18:03;95662.03;;;22.91;45.49
74242;BME280;62599;49.146;10.426;2023-05-20T11:20:29;95662.88;;;22.88;46.37
74242;BME280;62599;49.146;10.426;2023-05-20T11:23:04;95650.84;;;22.74;46.02
74242;BME280;62599;49.146;10.426;2023-05-20T11:25:33;95649.38;;;22.32;46.48
74242;BME280;62599;49.146;10.426;2023-05-20T11:28:00;95650.81;;;22.44;47.53
74242;BME280;62599;49.146;10.426;2023-05-20T11:30:26;95658.69;;;22.42;46.91
74242;BME280;62599;49.146;10.426;2023-05-20T11:32:59;95652.28;;;22.55;47.61
74242;BME280;62599;49.146;10.426;2023-05-20T11:35:26;95639.09;;;22.40;47.29
74242;BME280;62599;49.146;10.426;2023-05-20T11:38:04;95635.78;;;22.55;48.43
74242;BME280;62599;49.146;10.426;2023-05-20T11:40:33;95632.59;;;22.61;46.28
74242;BME280;62599;49.146;10.426;2023-05-20T11:43:01;95638.31;;;22.73;46.52
74242;BME280;62599;49.146;10.426;2023-05-20T11:45:37;95636.66;;;22.79;48.10
74242;BME280;62599;49.146;10.426;2023-05-20T11:48:04;95630.19;;;22.97;48.22
74242;BME280;62599;49.146;10.426;2023-05-20T11:50:40;95641.91;;;23.01;47.54
74242;BME280;62599;49.146;10.426;2023-05-20T11:53:07;95627.97;;;22.85;47.35
74242;BME280;62599;49.146;10.426;2023-05-20T11:55:50;95633.09;;;22.82;47.04
74242;BME280;62599;49.146;10.426;2023-05-20T11:58:20;95629.69;;;22.71;46.23
74242;BME280;62599;49.146;10.426;2023-05-20T12:00:46;95627.69;;;22.75;46.58
74242;BME280;62599;49.146;10.426;2023-05-20T12:03:12;95630.00;;;22.80;46.38
74242;BME280;62599;49.146;10.426;2023-05-20T12:05:38;95615.63;;;22.66;46.62
74242;BME280;62599;49.146;10.426;2023-05-20T12:08:04;95624.19;;;22.41;48.00
74242;BME280;62599;49.146;10.426;2023-05-20T12:10:30;95622.28;;;22.68;47.49
74242;BME280;62599;49.146;10.426;2023-05-20T12:12:56;95626.34;;;22.87;46.94
74242;BME280;62599;49.146;10.426;2023-05-20T12:15:22;95621.66;;;22.88;47.06
74242;BME280;62599;49.146;10.426;2023-05-20T12:17:49;95617.34;;;22.87;47.38
74242;BME280;62599;49.146;10.426;2023-05-20T12:20:16;95618.53;;;22.86;46.95
74242;BME280;62599;49.146;10.426;2023-05-20T12:22:46;95615.34;;;23.45;45.81
74242;BME280;62599;49.146;10.426;2023-05-20T12:25:12;95608.66;;;23.93;43.20
74242;BME280;62599;49.146;10.426;2023-05-20T12:27:42;95613.78;;;24.14;43.83
74242;BME280;62599;49.146;10.426;2023-05-20T12:30:14;95604.66;;;24.41;43.44
74242;BME280;62599;49.146;10.426;2023-05-20T12:32:40;95607.97;;;24.52;42.55
74242;BME280;62599;49.146;10.426;2023-05-20T12:35:08;95602.09;;;24.50;42.96
74242;BME280;62599;49.146;10.426;2023-05-20T12:37:35;95599.13;;;24.61;42.88
74242;BME280;62599;49.146;10.426;2023-05-20T12:40:01;95610.69;;;24.92;41.67
74242;BME280;62599;49.146;10.426;2023-05-20T12:42:32;95611.81;;;24.94;41.13
74242;BME280;62599;49.146;10.426;2023-05-20T12:44:57;95596.56;;;24.90;41.68
74242;BME280;62599;49.146;10.426;2023-05-20T12:47:23;95612.63;;;24.75;42.16
74242;BME280;62599;49.146;10.426;2023-05-20T12:49:48;95604.78;;;24.73;41.62
74242;BME280;62599;49.146;10.426;2023-05-20T12:52:14;95608.25;;;24.58;42.45
74242;BME280;62599;49.146;10.426;2023-05-20T12:54:39;95603.81;;;24.44;41.92
74242;BME280;62599;49.146;10.426;2023-05-20T12:57:05;95590.91;;;24.17;42.86
74242;BME280;62599;49.146;10.426;2023-05-20T12:59:30;95606.84;;;23.59;44.80